Time;durP1;ratioP1;P1;durP2;ratioP2;P2;SDS_P1;SDS_P2;PMS_P1;PMS_P2;Temp;Humidity;BMP_temperature;BMP_pressure;BME280_temperature;BME280_humidity;BME280_pressure;Samples;Min_cycle;Max_cycle;Signal;HPM_P1;HPM_P2
2024/04/02 00:02:22;;;;;;;4.90;2.30;;;;;;;;;;4994124;28;20187;-78
2024/04/02 00:04:48;;;;;;;5.30;2.10;;;;;;;;;;4994115;28;20667;-79
2024/04/02 00:07:13;;;;;;;4.93;2.80;;;;;;;;;;4993874;28;20561;-78
2024/04/02 00:09:39;;;;;;;3.37;2.40;;;;;;;;;;4994294;28;20203;-78
2024/04/02 00:12:05;;;;;;;4.80;1.83;;;;;;;;;;4993915;28;20411;-78
2024/04/02 00:14:31;;;;;;;3.40;1.83;;;;;;;;;;4993748;28;20587;-78
2024/04/02 00:16:57;;;;;;;3.00;1.70;;;;;;;;;;4993920;28;20486;-78
2024/04/02 00:19:23;;;;;;;7.83;2.80;;;;;;;;;;4993840;28;20188;-78
2024/04/02 00:21:49;;;;;;;6.50;2.70;;;;;;;;;;4993915;28;20922;-78
2024/04/02 00:24:15;;;;;;;3.30;2.40;;;;;;;;;;4993921;28;20211;-79
2024/04/02 00:26:41;;;;;;;4.50;2.20;;;;;;;;;;4993846;28;20619;-80
2024/04/02 00:29:07;;;;;;;6.07;2.67;;;;;;;;;;4993505;28;20170;-79
2024/04/02 00:31:32;;;;;;;5.23;2.50;;;;;;;;;;4993822;28;20669;-82
2024/04/02 00:33:58;;;;;;;5.50;2.30;;;;;;;;;;5001873;28;20414;-83
2024/04/02 00:36:24;;;;;;;7.60;2.90;;;;;;;;;;5013335;28;20175;-80
2024/04/02 00:38:50;;;;;;;6.93;2.90;;;;;;;;;;5013374;28;20202;-85
2024/04/02 00:41:16;;;;;;;7.73;2.90;;;;;;;;;;5028385;28;20483;-83
2024/04/02 00:43:42;;;;;;;4.73;2.47;;;;;;;;;;5013005;28;20171;-83
2024/04/02 00:46:08;;;;;;;6.90;2.53;;;;;;;;;;5013247;28;20174;-83
2024/04/02 00:48:34;;;;;;;9.90;2.53;;;;;;;;;;5028400;28;20178;-79
2024/04/02 00:51:00;;;;;;;3.07;2.10;;;;;;;;;;5013269;28;20425;-79
2024/04/02 00:53:26;;;;;;;2.73;1.93;;;;;;;;;;5013231;28;20413;-82
2024/04/02 00:55:52;;;;;;;5.97;2.63;;;;;;;;;;5013158;28;20806;-84
2024/04/02 00:58:17;;;;;;;6.47;3.20;;;;;;;;;;5028001;28;20464;-79
2024/04/02 01:00:44;;;;;;;7.20;2.23;;;;;;;;;;5013003;28;20480;-86
2024/04/02 01:03:10;;;;;;;4.70;3.13;;;;;;;;;;5013121;28;20468;-84
2024/04/02 01:05:37;;;;;;;4.10;2.80;;;;;;;;;;5013086;28;20458;-82
2024/04/02 01:08:04;;;;;;;4.43;2.60;;;;;;;;;;5012939;28;20828;-86
2024/04/02 01:10:31;;;;;;;4.63;2.30;;;;;;;;;;5012966;28;20487;-78
2024/04/02 01:12:57;;;;;;;2.70;2.03;;;;;;;;;;5013005;28;20421;-78
2024/04/02 01:15:23;;;;;;;8.97;3.10;;;;;;;;;;5012625;28;20938;-79
2024/04/02 01:17:49;;;;;;;4.43;2.30;;;;;;;;;;5028116;28;20419;-81
2024/04/02 01:20:15;;;;;;;6.80;3.53;;;;;;;;;;5012735;28;20477;-79
2024/04/02 01:22:41;;;;;;;8.67;2.90;;;;;;;;;;5014198;28;20410;-79
2024/04/02 01:25:08;;;;;;;6.70;2.83;;;;;;;;;;5016786;28;20411;-79
2024/04/02 01:27:34;;;;;;;2.30;1.50;;;;;;;;;;5016730;28;20174;-80
2024/04/02 01:30:00;;;;;;;4.53;2.70;;;;;;;;;;5016263;28;20434;-80
2024/04/02 01:32:26;;;;;;;4.23;2.77;;;;;;;;;;5016553;28;20173;-80
2024/04/02 01:34:52;;;;;;;6.57;2.30;;;;;;;;;;5016494;28;20422;-79
2024/04/02 01:37:18;;;;;;;6.50;2.60;;;;;;;;;;5016488;28;20509;-79
2024/04/02 01:39:44;;;;;;;7.70;2.50;;;;;;;;;;5031611;28;20212;-79
2024/04/02 01:42:10;;;;;;;8.20;2.77;;;;;;;;;;5016410;28;20431;-79
2024/04/02 01:44:36;;;;;;;3.10;1.50;;;;;;;;;;5015992;28;20960;-80
2024/04/02 01:47:01;;;;;;;8.63;3.33;;;;;;;;;;5016343;28;20781;-79
2024/04/02 01:49:27;;;;;;;4.70;2.83;;;;;;;;;;5016291;28;20210;-79
2024/04/02 01:51:53;;;;;;;6.70;2.50;;;;;;;;;;5016259;28;20568;-79
2024/04/02 01:54:19;;;;;;;3.60;2.50;;;;;;;;;;5016171;28;20417;-79
2024/04/02 01:56:45;;;;;;;6.90;2.27;;;;;;;;;;5016142;28;20415;-80
2024/04/02 01:59:11;;;;;;;6.50;1.97;;;;;;;;;;5030904;28;20426;-80
2024/04/02 02:01:37;;;;;;;4.10;2.00;;;;;;;;;;5015933;28;20206;-79
2024/04/02 02:04:03;;;;;;;5.57;2.43;;;;;;;;;;5016004;28;20441;-85
2024/04/02 02:06:29;;;;;;;6.30;2.90;;;;;;;;;;5015599;28;20423;-81
2024/04/02 02:08:56;;;;;;;6.70;3.33;;;;;;;;;;5015901;28;20491;-79
2024/04/02 02:11:22;;;;;;;9.00;2.27;;;;;;;;;;5015797;28;20416;-79
2024/04/02 02:13:48;;;;;;;4.67;2.00;;;;;;;;;;5015397;28;20472;-79
2024/04/02 02:16:14;;;;;;;5.63;2.10;;;;;;;;;;5015749;28;20627;-79
2024/04/02 02:18:40;;;;;;;5.13;1.90;;;;;;;;;;5015692;28;20409;-80
2024/04/02 02:21:06;;;;;;;3.70;1.93;;;;;;;;;;5030526;28;20475;-80
2024/04/02 02:23:31;;;;;;;5.60;2.87;;;;;;;;;;5015565;28;20880;-79
2024/04/02 02:25:57;;;;;;;10.17;2.17;;;;;;;;;;5015492;28;20428;-79
2024/04/02 02:28:23;;;;;;;4.70;3.30;;;;;;;;;;5014743;28;20416;-80
2024/04/02 02:30:49;;;;;;;4.43;2.73;;;;;;;;;;5014695;28;20214;-79
2024/04/02 02:33:15;;;;;;;5.13;3.13;;;;;;;;;;5014978;28;20472;-82
2024/04/02 02:35:41;;;;;;;4.53;2.70;;;;;;;;;;5014783;28;20413;-83
2024/04/02 02:38:07;;;;;;;8.13;2.63;;;;;;;;;;5015251;28;20414;-83
2024/04/02 02:40:33;;;;;;;11.00;4.57;;;;;;;;;;5015230;28;20256;-79
2024/04/02 02:43:00;;;;;;;6.60;4.03;;;;;;;;;;5014848;28;20829;-79
2024/04/02 02:45:25;;;;;;;8.97;3.40;;;;;;;;;;5015181;28;21079;-83
2024/04/02 02:47:51;;;;;;;9.70;3.53;;;;;;;;;;5015136;28;20480;-81
2024/04/02 02:50:18;;;;;;;6.83;4.50;;;;;;;;;;5015139;28;20171;-80
2024/04/02 02:52:44;;;;;;;9.43;4.07;;;;;;;;;;5015051;28;20433;-83
2024/04/02 02:55:10;;;;;;;7.20;4.50;;;;;;;;;;5015063;28;20454;-79
2024/04/02 02:57:35;;;;;;;6.80;4.40;;;;;;;;;;5014876;28;20903;-83
2024/04/02 03:00:04;;;;;;;5.50;3.90;;;;;;;;;;5014507;28;20282;-82
2024/04/02 03:02:30;;;;;;;8.37;4.50;;;;;;;;;;5014932;28;20471;-82
2024/04/02 03:04:56;;;;;;;7.70;3.90;;;;;;;;;;5014860;28;20492;-79
2024/04/02 03:07:22;;;;;;;7.60;4.40;;;;;;;;;;5014594;28;20466;-78
2024/04/02 03:09:48;;;;;;;6.10;4.57;;;;;;;;;;5014691;28;20410;-80
2024/04/02 03:12:14;;;;;;;8.00;5.10;;;;;;;;;;5014759;28;20173;-79
2024/04/02 03:14:39;;;;;;;8.77;4.93;;;;;;;;;;5014278;28;20186;-79
2024/04/02 03:17:05;;;;;;;5.70;4.27;;;;;;;;;;5014680;28;20182;-78
2024/04/02 03:19:31;;;;;;;8.27;4.83;;;;;;;;;;5014483;28;20206;-78
2024/04/02 03:21:57;;;;;;;7.30;5.17;;;;;;;;;;5014515;28;20421;-78
2024/04/02 03:24:23;;;;;;;8.53;4.20;;;;;;;;;;5014442;28;20251;-78
2024/04/02 03:26:49;;;;;;;9.20;4.03;;;;;;;;;;5014460;28;20512;-78
2024/04/02 03:29:15;;;;;;;12.03;4.70;;;;;;;;;;5014007;28;20911;-82
2024/04/02 03:31:41;;;;;;;5.80;3.90;;;;;;;;;;5014387;28;20500;-79
2024/04/02 03:34:07;;;;;;;7.13;3.93;;;;;;;;;;5014320;28;20429;-78
2024/04/02 03:36:33;;;;;;;10.07;4.60;;;;;;;;;;5014360;28;20414;-77
2024/04/02 03:38:59;;;;;;;9.00;3.83;;;;;;;;;;5014108;28;20210;-79
2024/04/02 03:41:25;;;;;;;6.97;3.73;;;;;;;;;;5014119;28;20960;-79
2024/04/02 03:43:51;;;;;;;6.00;3.90;;;;;;;;;;5013808;28;20710;-81
2024/04/02 03:46:17;;;;;;;9.03;3.80;;;;;;;;;;5013595;28;20507;-79
2024/04/02 03:48:43;;;;;;;9.47;3.90;;;;;;;;;;5014043;28;20409;-79
2024/04/02 03:51:09;;;;;;;6.00;3.97;;;;;;;;;;5013917;28;20980;-82
2024/04/02 03:53:35;;;;;;;5.23;4.20;;;;;;;;;;5013761;28;20536;-80
2024/04/02 03:56:02;;;;;;;8.63;4.67;;;;;;;;;;5013960;28;20483;-82
2024/04/02 03:58:29;;;;;;;6.70;4.77;;;;;;;;;;5013502;28;20454;-81
2024/04/02 04:00:55;;;;;;;5.70;3.87;;;;;;;;;;5013701;28;20999;-79
2024/04/02 04:03:25;;;;;;;8.03;3.67;;;;;;;;;;5013774;28;20964;-80
2024/04/02 04:05:58;;;;;;;10.60;5.13;;;;;;;;;;5013687;28;20414;-79
2024/04/02 04:08:24;;;;;;;10.73;5.50;;;;;;;;;;5013506;28;21046;-82
2024/04/02 04:10:50;;;;;;;6.77;3.77;;;;;;;;;;5013750;28;20406;-79
2024/04/02 04:13:16;;;;;;;8.03;5.07;;;;;;;;;;5013338;28;20901;-82
2024/04/02 04:15:42;;;;;;;7.53;4.60;;;;;;;;;;5013554;28;20166;-80
2024/04/02 04:18:08;;;;;;;11.77;4.60;;;;;;;;;;5013432;28;20417;-79
2024/04/02 04:20:34;;;;;;;8.20;5.90;;;;;;;;;;5028576;28;20487;-79
2024/04/02 04:23:00;;;;;;;8.70;4.27;;;;;;;;;;5013384;28;20403;-80
2024/04/02 04:25:26;;;;;;;9.23;5.57;;;;;;;;;;5028670;28;20422;-79
2024/04/02 04:27:52;;;;;;;9.97;5.23;;;;;;;;;;5013073;28;20758;-79
2024/04/02 04:30:18;;;;;;;11.37;5.50;;;;;;;;;;5028658;28;20778;-83
2024/04/02 04:32:44;;;;;;;13.53;6.30;;;;;;;;;;5028603;28;20283;-83
2024/04/02 04:35:10;;;;;;;8.87;6.57;;;;;;;;;;5013331;28;20449;-81
2024/04/02 04:37:36;;;;;;;12.17;6.70;;;;;;;;;;5013365;28;20415;-80
2024/04/02 04:40:02;;;;;;;9.97;7.00;;;;;;;;;;5013245;28;20967;-80
2024/04/02 04:42:29;;;;;;;9.63;6.83;;;;;;;;;;5013234;28;20771;-79
2024/04/02 04:44:55;;;;;;;8.37;6.63;;;;;;;;;;5013149;28;20406;-79
2024/04/02 04:47:21;;;;;;;9.70;7.30;;;;;;;;;;5028347;28;20419;-81
2024/04/02 04:49:47;;;;;;;9.53;7.10;;;;;;;;;;5013185;28;20453;-80
2024/04/02 04:52:13;;;;;;;9.97;7.07;;;;;;;;;;5013209;28;20450;-78
2024/04/02 04:54:39;;;;;;;13.37;7.73;;;;;;;;;;5013203;28;20182;-78
2024/04/02 04:57:05;;;;;;;10.93;6.30;;;;;;;;;;5013558;28;20496;-78
2024/04/02 04:59:31;;;;;;;8.60;6.87;;;;;;;;;;5016728;28;20179;-78
2024/04/02 05:01:57;;;;;;;11.23;6.97;;;;;;;;;;5016875;28;20429;-78
2024/04/02 05:04:22;;;;;;;12.20;6.53;;;;;;;;;;5016955;28;20542;-78
2024/04/02 05:06:50;;;;;;;11.00;7.23;;;;;;;;;;5016624;28;20226;-78
2024/04/02 05:09:16;;;;;;;12.53;6.80;;;;;;;;;;5015690;28;20417;-80
2024/04/02 05:11:42;;;;;;;11.03;7.97;;;;;;;;;;5015462;28;20967;-78
2024/04/02 05:14:08;;;;;;;9.50;6.93;;;;;;;;;;5015214;28;20772;-78
2024/04/02 05:16:34;;;;;;;11.50;9.03;;;;;;;;;;5015486;28;20260;-79
2024/04/02 05:19:00;;;;;;;9.30;5.90;;;;;;;;;;5015480;28;20542;-79
2024/04/02 05:21:26;;;;;;;9.43;6.50;;;;;;;;;;5015274;28;20477;-80
2024/04/02 05:23:52;;;;;;;8.50;7.13;;;;;;;;;;5015180;28;20470;-79
2024/04/02 05:26:18;;;;;;;14.90;7.20;;;;;;;;;;5015199;28;20210;-80
2024/04/02 05:28:44;;;;;;;10.87;7.03;;;;;;;;;;5015018;28;20173;-81
2024/04/02 05:31:11;;;;;;;11.93;6.67;;;;;;;;;;5015395;28;20420;-79
2024/04/02 05:33:37;;;;;;;13.60;7.20;;;;;;;;;;5015410;28;20777;-79
2024/04/02 05:36:03;;;;;;;10.40;8.00;;;;;;;;;;5015284;28;20824;-79
2024/04/02 05:38:29;;;;;;;11.10;8.73;;;;;;;;;;5015183;28;20406;-78
2024/04/02 05:40:55;;;;;;;11.00;8.67;;;;;;;;;;5015040;28;21075;-79
2024/04/02 05:43:24;;;;;;;14.47;8.57;;;;;;;;;;5014707;28;20180;-78
2024/04/02 05:45:50;;;;;;;9.60;7.43;;;;;;;;;;5015059;28;20679;-79
2024/04/02 05:48:16;;;;;;;12.57;7.63;;;;;;;;;;5014885;28;20410;-79
2024/04/02 05:50:42;;;;;;;10.97;8.77;;;;;;;;;;5015019;28;20434;-79
2024/04/02 05:53:07;;;;;;;11.30;8.10;;;;;;;;;;5030196;28;21015;-79
2024/04/02 05:55:33;;;;;;;10.57;7.93;;;;;;;;;;5014936;28;20420;-77
2024/04/02 05:57:59;;;;;;;13.13;9.43;;;;;;;;;;5014577;28;20489;-78
2024/04/02 06:00:28;;;;;;;9.87;8.30;;;;;;;;;;5030000;28;20570;-79
2024/04/02 06:02:54;;;;;;;10.10;7.33;;;;;;;;;;5014872;28;20420;-82
2024/04/02 06:05:20;;;;;;;13.90;7.30;;;;;;;;;;5014792;28;20465;-79
2024/04/02 06:07:46;;;;;;;14.20;9.00;;;;;;;;;;4979812;28;1008883;-79
2024/04/02 06:10:12;;;;;;;10.53;7.80;;;;;;;;;;5015838;28;20183;-80
2024/04/02 06:12:41;;;;;;;14.90;10.43;;;;;;;;;;5015407;28;20182;-78
2024/04/02 06:15:07;;;;;;;12.23;8.50;;;;;;;;;;5015874;28;20403;-82
2024/04/02 06:17:33;;;;;;;11.67;7.77;;;;;;;;;;5015739;28;20922;-79
2024/04/02 06:19:59;;;;;;;10.67;9.57;;;;;;;;;;5015604;28;20458;-85
2024/04/02 06:22:28;;;;;;;12.60;9.40;;;;;;;;;;5015667;28;20419;-79
2024/04/02 06:24:54;;;;;;;10.97;8.67;;;;;;;;;;5030892;28;20171;-81
2024/04/02 06:27:20;;;;;;;9.00;8.10;;;;;;;;;;5015123;28;20447;-79
2024/04/02 06:29:46;;;;;;;13.73;8.53;;;;;;;;;;5015442;28;20167;-78
2024/04/02 06:32:12;;;;;;;10.73;8.00;;;;;;;;;;5015467;28;20435;-79
2024/04/02 06:34:37;;;;;;;9.27;6.80;;;;;;;;;;5015407;28;20179;-79
2024/04/02 06:37:03;;;;;;;9.03;7.00;;;;;;;;;;5015421;28;20180;-79
2024/04/02 06:39:29;;;;;;;9.33;8.20;;;;;;;;;;5015269;28;20178;-79
2024/04/02 06:41:55;;;;;;;9.27;6.57;;;;;;;;;;5015171;28;20469;-80
2024/04/02 06:44:21;;;;;;;8.70;7.00;;;;;;;;;;5014927;28;20431;-78
2024/04/02 06:46:49;;;;;;;12.60;6.87;;;;;;;;;;5030417;28;20924;-83
2024/04/02 06:49:15;;;;;;;13.60;7.57;;;;;;;;;;5030305;28;20422;-78
2024/04/02 06:51:40;;;;;;;10.67;7.00;;;;;;;;;;5015087;28;20908;-80
2024/04/02 06:54:06;;;;;;;9.13;6.17;;;;;;;;;;5014931;28;20180;-79
2024/04/02 06:56:32;;;;;;;12.23;6.47;;;;;;;;;;5014927;28;20596;-81
2024/04/02 06:58:58;;;;;;;11.17;7.27;;;;;;;;;;5014687;28;20407;-80
2024/04/02 07:01:24;;;;;;;6.97;6.27;;;;;;;;;;5014795;28;20470;-81
2024/04/02 07:03:50;;;;;;;9.37;8.00;;;;;;;;;;5014932;28;20407;-79
2024/04/02 07:06:16;;;;;;;9.47;8.47;;;;;;;;;;5014802;28;20441;-79
2024/04/02 07:08:46;;;;;;;12.30;8.33;;;;;;;;;;5014504;28;20545;-79
2024/04/02 07:11:12;;;;;;;10.03;8.20;;;;;;;;;;5014537;28;20487;-80
2024/04/02 07:13:38;;;;;;;9.73;6.80;;;;;;;;;;5014142;28;20422;-79
2024/04/02 07:16:04;;;;;;;8.80;7.10;;;;;;;;;;5014704;28;20410;-78
2024/04/02 07:18:34;;;;;;;11.23;9.07;;;;;;;;;;5014634;28;20414;-79
2024/04/02 07:21:04;;;;;;;10.23;7.30;;;;;;;;;;5013744;28;20556;-79
2024/04/02 07:23:31;;;;;;;11.63;8.07;;;;;;;;;;5014521;28;20407;-79
2024/04/02 07:25:56;;;;;;;12.97;7.07;;;;;;;;;;5014775;28;20411;-80
2024/04/02 07:28:23;;;;;;;9.60;7.23;;;;;;;;;;5014133;28;20472;-79
2024/04/02 07:30:49;;;;;;;11.30;7.83;;;;;;;;;;5014242;28;20427;-80
2024/04/02 07:33:16;;;;;;;11.40;8.90;;;;;;;;;;5014295;28;20489;-79
2024/04/02 07:35:45;;;;;;;10.10;7.03;;;;;;;;;;5014178;28;20505;-79
2024/04/02 07:38:11;;;;;;;11.17;7.40;;;;;;;;;;5029249;28;20425;-80
2024/04/02 07:40:37;;;;;;;10.20;8.03;;;;;;;;;;5014017;28;20483;-79
2024/04/02 07:43:05;;;;;;;8.23;5.87;;;;;;;;;;5013743;28;20411;-79
2024/04/02 07:45:31;;;;;;;10.70;7.73;;;;;;;;;;5013986;28;20509;-79
2024/04/02 07:47:57;;;;;;;10.90;6.23;;;;;;;;;;5013999;28;20920;-78
2024/04/02 07:50:23;;;;;;;12.83;7.03;;;;;;;;;;5013966;28;20426;-79
2024/04/02 07:52:50;;;;;;;11.00;8.23;;;;;;;;;;5013977;28;20180;-79
2024/04/02 07:55:16;;;;;;;13.40;7.90;;;;;;;;;;5013960;28;20187;-79
2024/04/02 07:57:42;;;;;;;10.87;7.60;;;;;;;;;;5013538;28;20501;-79
2024/04/02 08:00:08;;;;;;;8.97;7.10;;;;;;;;;;5013776;28;20462;-80
2024/04/02 08:02:34;;;;;;;8.97;7.87;;;;;;;;;;5013840;28;20290;-79
2024/04/02 08:05:00;;;;;;;9.70;6.77;;;;;;;;;;5013791;28;20415;-82
2024/04/02 08:07:27;;;;;;;11.50;9.37;;;;;;;;;;5013528;28;20475;-80
2024/04/02 08:09:53;;;;;;;8.70;5.90;;;;;;;;;;5013752;28;20453;-80
2024/04/02 08:12:19;;;;;;;10.20;7.23;;;;;;;;;;5013260;28;20414;-80
2024/04/02 08:14:45;;;;;;;9.27;5.83;;;;;;;;;;5013617;28;20712;-81
2024/04/02 08:17:11;;;;;;;8.20;6.87;;;;;;;;;;5013602;28;20177;-79
2024/04/02 08:19:37;;;;;;;8.50;6.27;;;;;;;;;;5013509;28;20565;-78
2024/04/02 08:22:03;;;;;;;7.50;6.67;;;;;;;;;;5028709;28;20852;-80
2024/04/02 08:24:29;;;;;;;7.17;5.50;;;;;;;;;;5013435;28;20451;-80
2024/04/02 08:26:55;;;;;;;8.30;5.70;;;;;;;;;;5012987;28;20499;-81
2024/04/02 08:29:21;;;;;;;7.77;5.57;;;;;;;;;;5013326;28;20417;-79
2024/04/02 08:31:46;;;;;;;8.77;5.23;;;;;;;;;;5013236;28;20900;-79
2024/04/02 08:34:12;;;;;;;11.07;5.70;;;;;;;;;;5013404;28;20424;-80
2024/04/02 08:36:39;;;;;;;6.93;4.67;;;;;;;;;;5013208;28;20417;-81
2024/04/02 08:39:06;;;;;;;5.90;5.00;;;;;;;;;;5013341;28;20415;-79
2024/04/02 08:41:32;;;;;;;5.87;5.27;;;;;;;;;;5013231;28;20480;-80
2024/04/02 08:43:58;;;;;;;6.60;4.63;;;;;;;;;;5012785;28;20925;-81
2024/04/02 08:46:27;;;;;;;8.40;4.60;;;;;;;;;;5013204;28;20174;-81
2024/04/02 08:48:53;;;;;;;5.47;4.03;;;;;;;;;;5013146;28;20464;-81
2024/04/02 08:51:22;;;;;;;9.50;5.10;;;;;;;;;;5013147;28;20413;-81
2024/04/02 08:53:48;;;;;;;5.43;4.37;;;;;;;;;;5013091;28;20417;-78
2024/04/02 08:56:16;;;;;;;4.57;3.80;;;;;;;;;;5013094;28;20418;-79
2024/04/02 08:58:43;;;;;;;8.03;4.47;;;;;;;;;;5012816;28;20444;-84
2024/04/02 09:01:12;;;;;;;6.50;4.03;;;;;;;;;;5013050;28;20981;-77
2024/04/02 09:03:38;;;;;;;4.93;3.60;;;;;;;;;;5013010;28;20426;-77
2024/04/02 09:06:04;;;;;;;6.00;2.60;;;;;;;;;;5013083;28;20417;-77
2024/04/02 09:08:30;;;;;;;8.93;3.53;;;;;;;;;;5012628;28;20555;-77
2024/04/02 09:10:56;;;;;;;4.20;2.60;;;;;;;;;;5013057;28;20435;-75
2024/04/02 09:13:22;;;;;;;7.63;2.67;;;;;;;;;;5012703;28;20425;-75
2024/04/02 09:15:48;;;;;;;4.47;2.20;;;;;;;;;;5012786;28;20420;-78
2024/04/02 09:18:17;;;;;;;4.57;2.30;;;;;;;;;;5012976;28;20459;-78
2024/04/02 09:20:43;;;;;;;4.90;2.13;;;;;;;;;;5012679;28;20451;-77
2024/04/02 09:23:10;;;;;;;4.90;2.23;;;;;;;;;;5027898;28;20418;-76
2024/04/02 09:25:36;;;;;;;10.70;3.33;;;;;;;;;;5012631;28;20422;-77
2024/04/02 09:28:02;;;;;;;4.40;2.50;;;;;;;;;;5012296;28;20424;-77
2024/04/02 09:30:28;;;;;;;4.23;1.87;;;;;;;;;;5012825;28;20907;-77
2024/04/02 09:32:54;;;;;;;3.73;2.60;;;;;;;;;;5012702;28;20177;-78
2024/04/02 09:35:39;;;;;;;3.20;2.67;;;;;;;;;;5012836;28;20416;-78
2024/04/02 09:38:05;;;;;;;7.07;2.80;;;;;;;;;;5012662;28;20422;-78
2024/04/02 09:40:31;;;;;;;3.77;2.47;;;;;;;;;;5012698;28;20479;-77
2024/04/02 09:42:58;;;;;;;5.80;2.20;;;;;;;;;;5012557;28;20470;-78
2024/04/02 09:45:26;;;;;;;5.57;2.73;;;;;;;;;;5016426;28;20430;-78
2024/04/02 09:47:52;;;;;;;4.30;2.47;;;;;;;;;;5031481;28;20845;-79
2024/04/02 09:50:18;;;;;;;3.53;2.03;;;;;;;;;;5016268;28;20428;-78
2024/04/02 09:52:44;;;;;;;4.97;2.87;;;;;;;;;;5016174;28;20780;-77
2024/04/02 09:55:10;;;;;;;4.80;2.00;;;;;;;;;;5016186;28;20232;-78
2024/04/02 09:57:36;;;;;;;3.17;1.70;;;;;;;;;;5015789;28;20483;-77
2024/04/02 10:00:04;;;;;;;3.27;2.03;;;;;;;;;;5015977;28;20814;-77
2024/04/02 10:02:33;;;;;;;6.07;2.63;;;;;;;;;;5016063;28;20418;-75
2024/04/02 10:04:59;;;;;;;3.20;1.70;;;;;;;;;;5015855;28;20467;-75
2024/04/02 10:07:32;;;;;;;3.87;1.63;;;;;;;;;;5015832;28;20962;-76
2024/04/02 10:09:58;;;;;;;4.53;1.37;;;;;;;;;;5015822;28;20496;-75
2024/04/02 10:12:28;;;;;;;4.90;1.70;;;;;;;;;;5015551;28;20734;-76
2024/04/02 10:14:54;;;;;;;4.10;1.53;;;;;;;;;;5015758;28;20789;-75
2024/04/02 10:17:21;;;;;;;3.63;1.87;;;;;;;;;;5015667;28;20410;-76
2024/04/02 10:19:47;;;;;;;4.80;1.40;;;;;;;;;;5015666;28;20444;-76
2024/04/02 10:22:13;;;;;;;4.70;1.50;;;;;;;;;;5015695;28;20424;-76
2024/04/02 10:24:39;;;;;;;2.70;1.10;;;;;;;;;;5015584;28;20431;-77
2024/04/02 10:27:08;;;;;;;2.53;1.00;;;;;;;;;;5015136;28;20423;-76
2024/04/02 10:29:34;;;;;;;4.77;0.87;;;;;;;;;;5015424;28;20181;-76
2024/04/02 10:32:01;;;;;;;2.23;1.43;;;;;;;;;;5015432;28;20420;-76
2024/04/02 10:34:27;;;;;;;3.93;1.17;;;;;;;;;;5015402;28;20476;-76
2024/04/02 10:36:53;;;;;;;5.63;1.40;;;;;;;;;;5015340;28;20427;-76
2024/04/02 10:39:19;;;;;;;3.70;0.73;;;;;;;;;;5015299;28;20414;-76
2024/04/02 10:41:46;;;;;;;3.43;0.90;;;;;;;;;;5014862;28;20248;-78
2024/04/02 10:44:12;;;;;;;4.50;1.50;;;;;;;;;;5015101;28;20777;-75
2024/04/02 10:46:39;;;;;;;3.60;1.30;;;;;;;;;;5015202;28;20449;-75
2024/04/02 10:49:05;;;;;;;3.67;1.10;;;;;;;;;;5015004;28;20924;-77
2024/04/02 10:51:32;;;;;;;4.37;1.43;;;;;;;;;;5030414;28;20421;-78
2024/04/02 10:53:58;;;;;;;7.23;1.37;;;;;;;;;;5014927;28;20653;-78
2024/04/02 10:56:25;;;;;;;2.27;0.43;;;;;;;;;;5014194;28;20424;-81
2024/04/02 10:58:54;;;;;;;5.17;0.50;;;;;;;;;;5014523;28;20413;-79
2024/04/02 11:01:20;;;;;;;3.17;0.83;;;;;;;;;;5030093;28;20538;-79
2024/04/02 11:03:49;;;;;;;1.70;0.57;;;;;;;;;;5029893;28;20428;-79
2024/04/02 11:06:16;;;;;;;2.20;0.63;;;;;;;;;;5029856;28;20519;-77
2024/04/02 11:08:43;;;;;;;1.73;0.77;;;;;;;;;;5014533;28;20502;-81
2024/04/02 11:11:17;;;;;;;2.60;0.70;;;;;;;;;;5014491;28;20970;-75
2024/04/02 11:13:43;;;;;;;3.67;1.07;;;;;;;;;;5014143;28;20800;-76
2024/04/02 11:16:09;;;;;;;4.10;0.70;;;;;;;;;;5027153;28;20438;-77
2024/04/02 11:18:35;;;;;;;2.93;0.77;;;;;;;;;;5013999;28;20178;-79
2024/04/02 11:21:01;;;;;;;1.90;0.87;;;;;;;;;;5014462;28;20476;-78
2024/04/02 11:26:16;;;;;;;3.40;0.63;;;;;;;;;;5014359;28;20463;-79
2024/04/02 11:28:45;;;;;;;6.43;1.77;;;;;;;;;;5011473;28;20432;-79
2024/04/02 11:31:11;;;;;;;4.07;0.70;;;;;;;;;;5014428;28;20506;-79
2024/04/02 11:33:38;;;;;;;4.53;1.10;;;;;;;;;;5014330;28;20447;-78
2024/04/02 11:36:05;;;;;;;3.20;0.60;;;;;;;;;;5014226;28;20537;-78
2024/04/02 11:38:31;;;;;;;3.83;1.03;;;;;;;;;;5014002;28;20419;-78
2024/04/02 11:40:57;;;;;;;4.37;1.40;;;;;;;;;;5014010;28;20524;-78
2024/04/02 11:43:23;;;;;;;3.63;1.37;;;;;;;;;;5013897;28;20497;-80
2024/04/02 11:45:51;;;;;;;3.17;0.83;;;;;;;;;;5013940;28;20418;-78
2024/04/02 11:48:17;;;;;;;4.47;1.33;;;;;;;;;;5014111;28;20412;-78
2024/04/02 11:50:43;;;;;;;2.60;0.70;;;;;;;;;;5013653;28;20478;-78
2024/04/02 11:53:09;;;;;;;3.70;1.40;;;;;;;;;;5013699;28;20280;-78
2024/04/02 11:55:35;;;;;;;3.80;1.00;;;;;;;;;;5013979;28;20445;-80
2024/04/02 12:00:45;;;;;;;3.50;1.60;;;;;;;;;;5013836;28;20222;-78
2024/04/02 12:03:11;;;;;;;1.30;0.50;;;;;;;;;;5013944;28;20407;-78
2024/04/02 12:05:37;;;;;;;1.37;0.30;;;;;;;;;;5013599;28;20630;-78
2024/04/02 12:08:03;;;;;;;3.70;1.03;;;;;;;;;;5013376;28;20226;-78
2024/04/02 12:10:28;;;;;;;3.43;0.67;;;;;;;;;;5013726;28;20179;-79
2024/04/02 12:12:54;;;;;;;4.93;0.80;;;;;;;;;;5013148;28;20417;-77
2024/04/02 12:15:20;;;;;;;3.00;0.90;;;;;;;;;;5013815;28;20787;-77
2024/04/02 12:17:46;;;;;;;1.40;0.60;;;;;;;;;;5013727;28;20233;-82
2024/04/02 12:20:12;;;;;;;4.10;1.03;;;;;;;;;;5012267;28;20467;-77
2024/04/02 12:22:38;;;;;;;4.60;1.20;;;;;;;;;;5013722;28;20209;-77
2024/04/02 12:25:04;;;;;;;3.10;1.70;;;;;;;;;;5013584;28;20413;-77
2024/04/02 12:27:30;;;;;;;3.83;1.50;;;;;;;;;;5013149;28;20465;-81
2024/04/02 12:29:59;;;;;;;3.53;0.97;;;;;;;;;;5013138;28;20407;-83
2024/04/02 12:32:26;;;;;;;3.63;1.70;;;;;;;;;;5013432;28;20498;-79
2024/04/02 12:34:52;;;;;;;3.50;1.50;;;;;;;;;;5013281;28;20410;-79
2024/04/02 12:37:18;;;;;;;3.47;1.40;;;;;;;;;;5013450;28;20407;-79
2024/04/02 12:39:46;;;;;;;3.93;1.23;;;;;;;;;;5012400;28;20410;-80
2024/04/02 12:42:13;;;;;;;3.10;1.63;;;;;;;;;;5011801;28;20788;-82
2024/04/02 12:44:39;;;;;;;7.23;1.70;;;;;;;;;;5013363;28;20447;-80
2024/04/02 12:47:06;;;;;;;4.73;1.80;;;;;;;;;;5013179;28;20773;-80
2024/04/02 12:49:31;;;;;;;5.80;1.73;;;;;;;;;;5013274;28;20409;-80
2024/04/02 12:51:57;;;;;;;3.53;1.77;;;;;;;;;;5013143;28;20419;-81
2024/04/02 12:54:23;;;;;;;3.20;1.70;;;;;;;;;;5013248;28;20905;-80
2024/04/02 12:56:49;;;;;;;4.23;2.07;;;;;;;;;;5012801;28;20228;-80
2024/04/02 12:59:15;;;;;;;8.03;1.53;;;;;;;;;;5014521;28;20542;-79
2024/04/02 13:01:41;;;;;;;2.57;2.33;;;;;;;;;;5018917;28;20263;-79
2024/04/02 13:04:07;;;;;;;7.43;0.93;;;;;;;;;;5013256;28;20261;-78
2024/04/02 13:06:36;;;;;;;5.30;0.97;;;;;;;;;;5013060;28;20178;-79
2024/04/02 13:09:06;;;;;;;4.20;1.90;;;;;;;;;;5012984;28;20464;-79
2024/04/02 13:11:32;;;;;;;2.20;0.90;;;;;;;;;;5012771;28;20932;-79
2024/04/02 13:13:58;;;;;;;4.33;1.33;;;;;;;;;;5013075;28;20416;-82
2024/04/02 13:16:33;;;;;;;2.13;0.70;;;;;;;;;;5012979;28;20437;-80
2024/04/02 13:19:05;;;;;;;2.80;0.73;;;;;;;;;;5014808;28;20407;-79
2024/04/02 13:21:35;;;;;;;3.17;0.73;;;;;;;;;;5016759;28;20477;-79
2024/04/02 13:24:02;;;;;;;4.20;1.80;;;;;;;;;;5016806;28;20738;-79
2024/04/02 13:26:28;;;;;;;2.40;1.30;;;;;;;;;;5016412;28;20781;-80
2024/04/02 13:28:55;;;;;;;5.67;0.60;;;;;;;;;;5016650;28;20495;-79
2024/04/02 13:31:22;;;;;;;3.93;1.37;;;;;;;;;;5016504;28;20432;-80
2024/04/02 13:33:57;;;;;;;1.57;0.60;;;;;;;;;;5016650;28;20458;-80
2024/04/02 13:36:23;;;;;;;1.90;1.50;;;;;;;;;;5016521;28;20817;-79
2024/04/02 13:38:53;;;;;;;2.87;0.60;;;;;;;;;;5016516;28;20442;-80
2024/04/02 13:41:20;;;;;;;3.47;1.20;;;;;;;;;;5016039;28;20479;-79
2024/04/02 13:43:47;;;;;;;6.03;1.77;;;;;;;;;;5016442;28;20425;-78
2024/04/02 13:46:13;;;;;;;3.73;1.20;;;;;;;;;;5016409;28;20427;-80
2024/04/02 13:48:40;;;;;;;4.57;1.20;;;;;;;;;;5016152;28;20412;-79
2024/04/02 13:51:07;;;;;;;5.83;2.03;;;;;;;;;;5016172;28;20474;-79
2024/04/02 13:53:33;;;;;;;6.77;1.30;;;;;;;;;;5016228;28;20415;-79
2024/04/02 13:56:00;;;;;;;2.53;1.13;;;;;;;;;;5015876;28;20826;-78
2024/04/02 13:58:26;;;;;;;6.70;2.07;;;;;;;;;;5016088;28;20406;-79
2024/04/02 14:00:52;;;;;;;5.60;1.70;;;;;;;;;;5016015;28;20517;-79
2024/04/02 14:03:18;;;;;;;6.23;1.60;;;;;;;;;;5015845;28;20407;-79
2024/04/02 14:05:45;;;;;;;6.20;1.97;;;;;;;;;;5015848;28;20426;-80
2024/04/02 14:08:11;;;;;;;4.10;1.30;;;;;;;;;;5015504;28;21065;-79
2024/04/02 14:10:37;;;;;;;3.20;1.43;;;;;;;;;;5014875;28;20572;-79
2024/04/02 14:13:07;;;;;;;3.60;1.30;;;;;;;;;;5014888;28;20766;-79
2024/04/02 14:15:33;;;;;;;4.13;2.20;;;;;;;;;;5015251;28;20473;-78
2024/04/02 14:17:59;;;;;;;5.33;1.97;;;;;;;;;;5015344;28;20418;-81
2024/04/02 14:20:25;;;;;;;2.80;1.43;;;;;;;;;;5015124;28;20525;-81
2024/04/02 14:22:51;;;;;;;7.73;2.10;;;;;;;;;;5015229;28;20422;-81
2024/04/02 14:25:17;;;;;;;5.23;1.73;;;;;;;;;;5013056;28;20176;-83
2024/04/02 14:27:43;;;;;;;8.00;2.20;;;;;;;;;;5006008;28;20548;-79
2024/04/02 14:30:09;;;;;;;4.50;1.90;;;;;;;;;;5014361;28;20410;-81
2024/04/02 14:32:35;;;;;;;4.90;2.43;;;;;;;;;;5015206;28;20414;-80
2024/04/02 14:35:01;;;;;;;3.57;1.90;;;;;;;;;;5014573;28;20410;-80
2024/04/02 14:37:27;;;;;;;4.33;0.77;;;;;;;;;;5014928;28;20507;-83
2024/04/02 14:39:53;;;;;;;4.00;0.57;;;;;;;;;;5015038;28;20416;-80
2024/04/02 14:42:19;;;;;;;1.73;0.83;;;;;;;;;;5012782;28;20189;-79